createdAt,value
2017-08-13T00:00:46.797Z,27.40
2017-08-13T00:03:15.992Z,27.90
2017-08-13T00:05:45.428Z,27.10
2017-08-13T00:08:15.510Z,27.20
2017-08-13T00:10:44.577Z,27.10
2017-08-13T00:13:13.810Z,27.30
2017-08-13T00:15:49.925Z,27.50
2017-08-13T00:18:19.441Z,27.30
2017-08-13T00:20:53.150Z,27.80
2017-08-13T00:23:22.661Z,27.40
2017-08-13T00:25:51.986Z,27.80
2017-08-13T00:28:21.379Z,27.70
2017-08-13T00:30:50.840Z,27.40
2017-08-13T00:33:20.297Z,27.90
2017-08-13T00:35:50.917Z,27.80
2017-08-13T00:38:20.126Z,27.70
2017-08-13T00:40:49.492Z,27.80
2017-08-13T00:43:18.830Z,27.40
2017-08-13T00:45:47.993Z,26.80
2017-08-13T00:48:17.259Z,27.20
2017-08-13T00:50:46.681Z,27.00
2017-08-13T00:53:15.789Z,26.70
2017-08-13T00:55:45.317Z,27.20
2017-08-13T00:58:14.399Z,28.20
2017-08-13T01:00:44.091Z,28.40
2017-08-13T01:03:13.271Z,27.70
2017-08-13T01:05:43.089Z,27.70
2017-08-13T01:08:12.373Z,27.30
2017-08-13T01:10:42.485Z,27.60
2017-08-13T01:13:11.792Z,27.50
2017-08-13T01:15:41.047Z,26.70
2017-08-13T01:18:10.302Z,28.20
2017-08-13T01:20:39.569Z,26.10
2017-08-13T01:23:08.987Z,26.90
2017-08-13T01:25:37.970Z,27.70
2017-08-13T01:28:07.247Z,28.20
2017-08-13T01:30:36.755Z,26.70
2017-08-13T01:33:06.051Z,26.70
2017-08-13T01:35:35.234Z,27.70
2017-08-13T01:38:06.320Z,28.20
2017-08-13T01:40:35.649Z,27.40
2017-08-13T01:43:06.513Z,28.00
2017-08-13T01:45:36.033Z,28.50
2017-08-13T01:48:05.458Z,28.60
2017-08-13T01:50:34.656Z,28.80
2017-08-13T01:53:03.910Z,30.00
2017-08-13T01:55:33.270Z,29.50
2017-08-13T01:58:02.076Z,28.90
2017-08-13T02:00:31.340Z,29.60
2017-08-13T02:03:00.684Z,29.50
2017-08-13T02:05:37.001Z,30.10
2017-08-13T02:08:06.184Z,31.20
2017-08-13T02:10:35.623Z,30.50
2017-08-13T02:13:04.864Z,32.10
2017-08-13T02:15:34.122Z,31.30
2017-08-13T02:18:03.315Z,31.20
2017-08-13T02:20:32.422Z,32.40
2017-08-13T02:23:01.728Z,31.80
2017-08-13T02:25:31.853Z,32.40
2017-08-13T02:28:01.400Z,32.30
2017-08-13T02:30:30.885Z,32.40
2017-08-13T02:33:01.220Z,32.10
2017-08-13T02:35:30.583Z,32.40
2017-08-13T02:38:00.686Z,32.60
2017-08-13T02:40:30.891Z,33.30
2017-08-13T02:43:00.040Z,33.10
2017-08-13T02:45:29.275Z,33.10
2017-08-13T02:47:58.586Z,32.90
2017-08-13T02:50:27.792Z,31.00
2017-08-13T02:52:57.121Z,30.20
2017-08-13T02:55:26.634Z,30.90
2017-08-13T02:57:57.059Z,31.20
2017-08-13T03:00:26.266Z,31.10
2017-08-13T03:02:55.514Z,31.80
2017-08-13T03:05:24.804Z,31.50
2017-08-13T03:07:53.872Z,31.40
2017-08-13T03:10:23.082Z,32.00
2017-08-13T03:12:53.093Z,31.80
2017-08-13T03:15:29.377Z,33.90
2017-08-13T03:17:58.746Z,35.00
2017-08-13T03:20:28.173Z,36.30
2017-08-13T03:22:57.305Z,36.60
2017-08-13T03:25:26.553Z,37.40
2017-08-13T03:27:55.793Z,38.20
2017-08-13T03:30:25.070Z,38.00
2017-08-13T03:32:54.266Z,38.20
2017-08-13T03:35:23.752Z,38.30
2017-08-13T03:37:53.018Z,38.40
2017-08-13T03:40:22.278Z,39.00
2017-08-13T03:42:52.419Z,39.50
2017-08-13T03:45:21.570Z,39.80
2017-08-13T03:47:50.760Z,39.90
2017-08-13T03:50:20.205Z,40.30
2017-08-13T03:52:49.498Z,40.40
2017-08-13T03:55:18.651Z,40.40
2017-08-13T03:57:48.003Z,40.70
2017-08-13T04:00:17.228Z,40.80
2017-08-13T04:02:46.258Z,41.60
2017-08-13T04:05:15.391Z,41.70
2017-08-13T04:07:44.488Z,41.50
2017-08-13T04:10:16.932Z,41.70
2017-08-13T04:12:46.200Z,42.10
2017-08-13T04:15:15.510Z,42.20
2017-08-13T04:17:44.661Z,42.60
2017-08-13T04:20:13.785Z,42.70
2017-08-13T04:22:43.041Z,42.40
2017-08-13T04:25:12.485Z,42.20
2017-08-13T04:27:41.857Z,41.90
2017-08-13T04:30:10.885Z,42.00
2017-08-13T04:32:39.944Z,41.90
2017-08-13T04:35:10.030Z,42.10
2017-08-13T04:37:40.573Z,42.70
2017-08-13T04:40:09.663Z,42.60
2017-08-13T04:42:38.800Z,43.10
2017-08-13T04:45:09.393Z,43.00
2017-08-13T04:47:38.508Z,43.20
2017-08-13T04:50:07.777Z,43.60
2017-08-13T04:52:37.069Z,43.60
2017-08-13T04:55:06.403Z,43.90
2017-08-13T04:57:35.833Z,44.00
2017-08-13T05:00:05.353Z,43.90
2017-08-13T05:02:34.588Z,44.50
2017-08-13T05:05:03.832Z,45.40
2017-08-13T05:07:32.812Z,45.40
2017-08-13T05:10:02.201Z,46.20
2017-08-13T05:12:31.556Z,46.50
2017-08-13T05:15:00.978Z,48.70
2017-08-13T05:17:31.234Z,48.60
2017-08-13T05:20:00.673Z,48.50
2017-08-13T05:22:29.939Z,48.80
2017-08-13T05:24:58.699Z,49.30
2017-08-13T05:27:28.284Z,50.00
2017-08-13T05:29:57.580Z,52.20
2017-08-13T05:32:26.872Z,50.80
2017-08-13T05:34:56.069Z,50.70
2017-08-13T05:37:25.405Z,51.60
2017-08-13T05:39:54.665Z,51.20
2017-08-13T05:42:23.897Z,51.10
2017-08-13T05:44:53.183Z,53.10
2017-08-13T05:47:23.397Z,51.50
2017-08-13T05:49:52.659Z,51.10
2017-08-13T05:52:21.972Z,51.50
2017-08-13T05:54:51.335Z,52.00
2017-08-13T05:57:20.544Z,50.90
2017-08-13T05:59:49.682Z,51.40
2017-08-13T06:02:18.800Z,51.60
2017-08-13T06:04:48.035Z,51.80
2017-08-13T06:07:24.494Z,52.20
2017-08-13T06:09:53.838Z,52.30
2017-08-13T06:12:23.028Z,52.20
2017-08-13T06:14:52.649Z,52.50
2017-08-13T06:17:22.104Z,52.50
2017-08-13T06:19:51.454Z,53.10
2017-08-13T06:22:20.222Z,53.40
2017-08-13T06:24:49.493Z,53.90
2017-08-13T06:27:18.975Z,54.40
2017-08-13T06:29:48.303Z,54.90
2017-08-13T06:32:18.512Z,54.80
2017-08-13T06:34:47.699Z,54.70
2017-08-13T06:37:16.966Z,54.50
2017-08-13T06:39:46.402Z,54.60
2017-08-13T06:42:20.398Z,54.70
2017-08-13T06:44:49.571Z,54.30
2017-08-13T06:47:18.693Z,54.20
2017-08-13T06:49:49.262Z,54.10
2017-08-13T06:52:18.355Z,54.70
2017-08-13T06:54:47.682Z,55.20
2017-08-13T06:57:17.234Z,55.00
2017-08-13T06:59:46.671Z,54.90
2017-08-13T07:02:16.878Z,55.00
2017-08-13T07:04:47.022Z,55.40
2017-08-13T07:07:16.606Z,55.30
2017-08-13T07:09:45.896Z,55.80
2017-08-13T07:12:21.985Z,55.40
2017-08-13T07:14:51.337Z,55.60
2017-08-13T07:17:20.686Z,55.70
2017-08-13T07:19:50.057Z,56.10
2017-08-13T07:22:19.188Z,56.00
2017-08-13T07:24:48.523Z,55.80
2017-08-13T07:27:17.845Z,56.00
2017-08-13T07:29:46.986Z,56.20
2017-08-13T07:32:16.413Z,56.20
2017-08-13T07:34:45.846Z,56.10
2017-08-13T07:37:15.240Z,56.80
2017-08-13T07:39:44.729Z,56.80
2017-08-13T07:42:14.058Z,56.80
2017-08-13T07:44:43.240Z,57.30
2017-08-13T07:47:12.543Z,57.70
2017-08-13T07:49:41.785Z,57.90
2017-08-13T07:52:12.228Z,57.90
2017-08-13T07:54:41.510Z,57.70
2017-08-13T07:57:10.661Z,57.50
2017-08-13T07:59:39.957Z,57.30
2017-08-13T08:02:09.244Z,56.90
2017-08-13T08:04:39.406Z,56.70
2017-08-13T08:07:08.667Z,56.70
2017-08-13T08:09:37.866Z,56.60
2017-08-13T08:12:06.988Z,56.70
2017-08-13T08:14:36.431Z,57.30
2017-08-13T08:17:06.716Z,58.80
2017-08-13T08:19:35.889Z,58.80
2017-08-13T08:22:05.142Z,59.20
2017-08-13T08:24:34.221Z,59.10
2017-08-13T08:27:03.358Z,59.10
2017-08-13T08:29:32.818Z,59.40
2017-08-13T08:32:02.149Z,59.90
2017-08-13T08:34:32.509Z,60.00
2017-08-13T08:37:01.918Z,59.90
2017-08-13T08:39:31.103Z,59.40
2017-08-13T08:42:00.552Z,59.50
2017-08-13T08:44:29.774Z,59.10
2017-08-13T08:46:59.091Z,58.30
2017-08-13T08:49:28.656Z,58.40
2017-08-13T08:51:58.367Z,59.10
2017-08-13T08:54:28.951Z,59.10
2017-08-13T08:56:58.069Z,58.90
2017-08-13T08:59:27.452Z,59.40
2017-08-13T09:01:56.729Z,61.20
2017-08-13T09:04:25.967Z,60.00
2017-08-13T09:06:55.215Z,60.70
2017-08-13T09:09:24.530Z,60.00
2017-08-13T09:11:53.699Z,60.30
2017-08-13T09:14:22.888Z,60.60
2017-08-13T09:16:52.151Z,60.80
2017-08-13T09:19:21.307Z,60.20
2017-08-13T09:21:51.230Z,62.00
2017-08-13T09:24:21.075Z,63.50
2017-08-13T09:26:50.464Z,63.50
2017-08-13T09:29:19.756Z,63.50
2017-08-13T09:31:49.709Z,68.00
2017-08-13T09:34:18.938Z,68.00
2017-08-13T09:36:48.057Z,69.50
2017-08-13T09:39:17.880Z,71.60
2017-08-13T09:41:48.034Z,72.90
2017-08-13T09:44:17.165Z,72.80
2017-08-13T09:46:46.545Z,72.70
2017-08-13T09:49:15.818Z,73.40
2017-08-13T09:51:45.162Z,73.60
2017-08-13T09:54:14.383Z,75.70
2017-08-13T09:56:44.212Z,78.00
2017-08-13T09:59:14.347Z,79.80
2017-08-13T10:01:43.657Z,79.80
2017-08-13T10:04:12.982Z,80.60
2017-08-13T10:06:42.324Z,82.20
2017-08-13T10:09:11.490Z,82.40
2017-08-13T10:11:40.784Z,82.80
2017-08-13T10:14:10.178Z,82.90
2017-08-13T10:16:39.332Z,81.90
2017-08-13T10:19:08.837Z,80.80
2017-08-13T10:21:38.841Z,81.50
2017-08-13T10:24:08.042Z,81.40
2017-08-13T10:26:37.885Z,82.00
2017-08-13T10:29:07.318Z,81.90
2017-08-13T10:31:36.354Z,82.00
2017-08-13T10:34:05.432Z,82.30
2017-08-13T10:36:34.918Z,82.20
2017-08-13T10:39:04.216Z,83.10
2017-08-13T10:41:33.360Z,83.10
2017-08-13T10:44:02.698Z,83.10
2017-08-13T10:46:31.885Z,84.30
2017-08-13T10:49:01.119Z,83.60
2017-08-13T10:51:30.302Z,82.70
2017-08-13T10:53:59.689Z,82.70
2017-08-13T10:56:28.905Z,81.50
2017-08-13T10:58:59.003Z,81.60
2017-08-13T11:01:28.283Z,81.60
2017-08-13T11:03:57.436Z,82.10
2017-08-13T11:06:26.822Z,81.40
2017-08-13T11:08:56.018Z,81.20
2017-08-13T11:11:25.372Z,80.00
2017-08-13T11:13:55.625Z,80.70
2017-08-13T11:16:24.764Z,80.60
2017-08-13T11:18:54.617Z,81.80
2017-08-13T11:21:23.774Z,81.80
2017-08-13T11:23:53.212Z,81.80
2017-08-13T11:26:22.093Z,81.60
2017-08-13T11:28:52.082Z,81.70
2017-08-13T11:31:21.192Z,81.70
2017-08-13T11:33:50.448Z,81.50
2017-08-13T11:36:19.763Z,81.80
2017-08-13T11:38:49.091Z,83.00
2017-08-13T11:41:18.374Z,83.70
2017-08-13T11:43:47.616Z,82.40
2017-08-13T11:46:16.636Z,83.40
2017-08-13T11:48:45.749Z,84.40
2017-08-13T11:51:15.120Z,83.80
2017-08-13T11:53:44.310Z,82.40
2017-08-13T11:56:13.439Z,83.80
2017-08-13T11:58:42.699Z,83.90
2017-08-13T12:01:13.050Z,82.70
2017-08-13T12:03:42.303Z,82.70
2017-08-13T12:06:11.396Z,83.30
2017-08-13T12:08:40.753Z,84.00
2017-08-13T12:11:09.950Z,83.60
2017-08-13T12:13:39.339Z,83.30
2017-08-13T12:16:08.468Z,83.10
2017-08-13T12:18:37.646Z,83.20
2017-08-13T12:21:06.937Z,82.90
2017-08-13T12:23:36.257Z,83.30
2017-08-13T12:26:05.433Z,84.60
2017-08-13T12:28:34.592Z,83.40
2017-08-13T12:31:03.884Z,82.80
2017-08-13T12:33:33.180Z,82.60
2017-08-13T12:36:02.461Z,82.60
2017-08-13T12:38:31.606Z,84.60
2017-08-13T12:41:00.619Z,82.60
2017-08-13T12:43:29.987Z,82.60
2017-08-13T12:45:59.487Z,83.30
2017-08-13T12:48:28.550Z,82.20
2017-08-13T12:50:57.932Z,84.00
2017-08-13T12:53:27.305Z,83.50
2017-08-13T12:55:56.451Z,83.00
2017-08-13T12:58:25.619Z,83.80
2017-08-13T13:00:55.824Z,83.80
2017-08-13T13:03:26.145Z,84.30
2017-08-13T13:05:55.185Z,84.40
2017-08-13T13:08:24.420Z,84.50
2017-08-13T13:10:53.512Z,84.90
2017-08-13T13:13:22.880Z,85.00
2017-08-13T13:15:52.347Z,85.40
2017-08-13T13:18:21.641Z,85.50
2017-08-13T13:20:50.778Z,85.30
2017-08-13T13:23:20.221Z,84.80
2017-08-13T13:25:49.394Z,84.40
2017-08-13T13:28:18.569Z,85.30
2017-08-13T13:30:47.973Z,86.40
2017-08-13T13:33:17.329Z,86.00
2017-08-13T13:35:46.470Z,86.70
2017-08-13T13:38:15.561Z,85.70
2017-08-13T13:40:45.114Z,83.70
2017-08-13T13:43:14.378Z,84.00
2017-08-13T13:45:43.667Z,86.50
2017-08-13T13:48:13.011Z,84.70
2017-08-13T13:50:42.175Z,84.90
2017-08-13T13:53:11.421Z,84.10
2017-08-13T13:55:40.782Z,85.00
2017-08-13T13:58:12.993Z,84.80
2017-08-13T14:00:42.128Z,85.60
2017-08-13T14:03:11.251Z,84.40
2017-08-13T14:05:41.297Z,82.70
2017-08-13T14:08:10.570Z,83.40
2017-08-13T14:10:39.949Z,84.60
2017-08-13T14:13:09.145Z,83.70
2017-08-13T14:15:39.353Z,82.20
2017-08-13T14:18:08.741Z,81.70
2017-08-13T14:20:37.985Z,81.70
2017-08-13T14:23:07.605Z,83.70
2017-08-13T14:25:36.897Z,82.20
2017-08-13T14:28:06.417Z,81.60
2017-08-13T14:30:35.953Z,82.60
2017-08-13T14:33:05.101Z,82.80
2017-08-13T14:35:34.298Z,85.80
2017-08-13T14:38:03.404Z,85.10
2017-08-13T14:40:32.117Z,84.30
2017-08-13T14:43:00.844Z,83.90
2017-08-13T14:45:31.092Z,83.40
2017-08-13T14:48:00.332Z,83.40
2017-08-13T14:50:29.608Z,83.30
2017-08-13T14:52:59.035Z,83.30
2017-08-13T14:55:28.106Z,84.40
2017-08-13T14:57:57.474Z,81.40
2017-08-13T15:00:26.822Z,83.00
2017-08-13T15:02:56.351Z,82.50
2017-08-13T15:05:25.591Z,82.40
2017-08-13T15:07:56.133Z,81.20
2017-08-13T15:10:25.614Z,80.40
2017-08-13T15:12:54.806Z,81.60
2017-08-13T15:15:24.298Z,82.10
2017-08-13T15:17:53.417Z,82.20
2017-08-13T15:20:22.614Z,82.70
2017-08-13T15:22:51.630Z,80.40
2017-08-13T15:25:21.154Z,80.20
2017-08-13T15:27:50.319Z,81.10
2017-08-13T15:30:19.745Z,80.10
2017-08-13T15:32:48.873Z,80.40
2017-08-13T15:35:18.225Z,81.40
2017-08-13T15:37:47.393Z,79.30
2017-08-13T15:40:16.608Z,79.70
2017-08-13T15:42:45.911Z,81.00
2017-08-13T15:45:16.140Z,77.60
2017-08-13T15:47:45.267Z,77.60
2017-08-13T15:50:14.644Z,81.80
2017-08-13T15:52:43.711Z,80.10
2017-08-13T15:55:13.793Z,78.90
2017-08-13T15:57:43.199Z,78.90
2017-08-13T16:00:12.788Z,82.10
2017-08-13T16:02:42.177Z,79.70
2017-08-13T16:05:11.439Z,77.00
2017-08-13T16:07:41.578Z,82.30
2017-08-13T16:10:11.320Z,81.70
2017-08-13T16:12:40.535Z,77.90
2017-08-13T16:15:09.764Z,78.60
2017-08-13T16:17:38.934Z,77.20
2017-08-13T16:20:08.012Z,77.70
2017-08-13T16:22:37.244Z,79.00
2017-08-13T16:25:06.410Z,82.30
2017-08-13T16:27:35.677Z,75.40
2017-08-13T16:30:05.268Z,76.60
2017-08-13T16:32:34.440Z,76.90
2017-08-13T16:35:03.869Z,78.30
2017-08-13T16:37:33.333Z,75.60
2017-08-13T16:40:02.586Z,78.60
2017-08-13T16:42:31.832Z,80.60
2017-08-13T16:45:01.117Z,77.40
2017-08-13T16:47:30.651Z,77.40
2017-08-13T16:49:59.899Z,76.20
2017-08-13T16:52:29.453Z,75.80
2017-08-13T16:54:58.777Z,78.30
2017-08-13T16:57:28.142Z,80.30
2017-08-13T16:59:57.766Z,79.20
2017-08-13T17:02:26.971Z,77.10
2017-08-13T17:04:56.481Z,72.60
2017-08-13T17:07:25.720Z,71.50
2017-08-13T17:09:56.633Z,70.60
2017-08-13T17:12:28.363Z,71.10
2017-08-13T17:14:57.638Z,71.10
2017-08-13T17:17:27.331Z,73.10
2017-08-13T17:19:57.353Z,71.30
2017-08-13T17:22:27.544Z,70.50
2017-08-13T17:24:57.217Z,69.90
2017-08-13T17:27:27.096Z,71.40
2017-08-13T17:29:56.425Z,69.30
2017-08-13T17:32:26.016Z,70.20
2017-08-13T17:34:55.282Z,69.20
2017-08-13T17:37:24.547Z,66.00
2017-08-13T17:39:53.795Z,72.20
2017-08-13T17:42:23.577Z,67.50
2017-08-13T17:44:52.941Z,65.80
2017-08-13T17:47:22.271Z,64.40
2017-08-13T17:49:51.746Z,65.60
2017-08-13T17:52:28.161Z,66.40
2017-08-13T17:54:57.443Z,61.40
2017-08-13T17:57:26.608Z,64.10
2017-08-13T17:59:55.958Z,62.40
2017-08-13T18:02:25.060Z,63.00
2017-08-13T18:04:54.196Z,60.80
2017-08-13T18:07:23.475Z,62.20
2017-08-13T18:09:52.584Z,63.80
2017-08-13T18:12:21.862Z,62.40
2017-08-13T18:14:51.982Z,61.90
2017-08-13T18:17:22.814Z,63.80
2017-08-13T18:19:53.025Z,60.70
2017-08-13T18:22:23.346Z,60.60
2017-08-13T18:24:52.458Z,60.50
2017-08-13T18:27:22.246Z,51.10
2017-08-13T18:29:51.489Z,52.30
2017-08-13T18:32:20.866Z,49.50
2017-08-13T18:34:50.288Z,52.50
2017-08-13T18:37:19.445Z,54.00
2017-08-13T18:39:48.765Z,49.50
2017-08-13T18:42:18.088Z,52.70
2017-08-13T18:44:47.492Z,46.80
2017-08-13T18:47:16.791Z,48.30
2017-08-13T18:49:46.027Z,44.50
2017-08-13T18:52:15.167Z,46.20
2017-08-13T18:54:45.452Z,46.50
2017-08-13T18:57:14.342Z,46.60
2017-08-13T18:59:43.609Z,47.80
2017-08-13T19:02:12.960Z,47.80
2017-08-13T19:04:42.607Z,46.40
2017-08-13T19:07:11.718Z,48.70
2017-08-13T19:09:41.140Z,49.40
2017-08-13T19:12:10.630Z,54.00
2017-08-13T19:14:41.056Z,52.60
2017-08-13T19:17:11.837Z,54.50
2017-08-13T19:19:41.158Z,50.70
2017-08-13T19:22:12.094Z,51.60
2017-08-13T19:24:42.216Z,51.80
2017-08-13T19:27:12.089Z,54.00
2017-08-13T19:29:41.512Z,54.40
2017-08-13T19:32:11.798Z,55.30
2017-08-13T19:34:41.311Z,51.20
2017-08-13T19:37:11.310Z,54.70
2017-08-13T19:39:41.029Z,55.10
2017-08-13T19:42:10.339Z,58.90
2017-08-13T19:44:39.688Z,58.20
2017-08-13T19:47:09.870Z,60.90
2017-08-13T19:49:38.823Z,60.90
2017-08-13T19:52:07.853Z,62.00
2017-08-13T19:54:37.483Z,63.20
2017-08-13T19:57:06.917Z,62.80
2017-08-13T19:59:35.972Z,63.20
2017-08-13T20:02:05.265Z,61.90
2017-08-13T20:04:34.326Z,56.30
2017-08-13T20:07:03.608Z,54.60
2017-08-13T20:09:32.957Z,52.00
2017-08-13T20:12:02.239Z,49.10
2017-08-13T20:14:31.458Z,49.80
2017-08-13T20:17:00.846Z,46.20
2017-08-13T20:19:32.063Z,48.80
2017-08-13T20:22:02.016Z,43.90
2017-08-13T20:24:31.184Z,48.30
2017-08-13T20:27:00.256Z,49.80
2017-08-13T20:29:29.582Z,50.70
2017-08-13T20:31:58.700Z,43.70
2017-08-13T20:34:27.863Z,44.00
2017-08-13T20:36:57.848Z,49.90
2017-08-13T20:39:27.433Z,49.80
2017-08-13T20:41:56.647Z,47.10
2017-08-13T20:44:25.911Z,45.50
2017-08-13T20:46:55.527Z,43.50
2017-08-13T20:49:25.297Z,43.20
2017-08-13T20:51:54.844Z,42.10
2017-08-13T20:54:25.110Z,40.20
2017-08-13T20:56:54.524Z,42.10
2017-08-13T20:59:24.119Z,40.20
2017-08-13T21:01:53.577Z,38.90
2017-08-13T21:04:24.072Z,35.30
2017-08-13T21:06:54.107Z,40.50
2017-08-13T21:09:23.851Z,40.70
2017-08-13T21:11:53.160Z,36.90
2017-08-13T21:14:22.846Z,40.00
2017-08-13T21:16:53.268Z,39.40
2017-08-13T21:19:22.556Z,39.20
2017-08-13T21:21:52.662Z,38.80
2017-08-13T21:24:22.186Z,41.20
2017-08-13T21:26:51.423Z,38.20
2017-08-13T21:29:20.304Z,42.30
2017-08-13T21:31:50.488Z,40.80
2017-08-13T21:34:19.674Z,41.20
2017-08-13T21:36:50.238Z,38.10
2017-08-13T21:39:19.383Z,38.00
2017-08-13T21:41:49.512Z,37.60
2017-08-13T21:44:18.549Z,38.00
2017-08-13T21:46:47.837Z,37.80
2017-08-13T21:49:17.359Z,38.30
2017-08-13T21:51:46.492Z,37.40
2017-08-13T21:54:15.987Z,39.60
2017-08-13T21:56:45.078Z,37.70
2017-08-13T21:59:14.495Z,38.10
2017-08-13T22:01:43.883Z,38.90
2017-08-13T22:04:13.234Z,37.80
2017-08-13T22:06:42.643Z,37.70
2017-08-13T22:09:12.302Z,34.90
2017-08-13T22:11:49.215Z,36.00
2017-08-13T22:14:18.286Z,34.30
2017-08-13T22:16:47.517Z,33.40
2017-08-13T22:19:17.109Z,33.60
2017-08-13T22:21:47.138Z,30.80
2017-08-13T22:24:18.265Z,35.20
2017-08-13T22:26:47.476Z,35.30
2017-08-13T22:29:16.893Z,29.40
2017-08-13T22:31:46.507Z,30.70
2017-08-13T22:34:16.654Z,31.50
2017-08-13T22:36:46.036Z,31.60
2017-08-13T22:39:15.239Z,31.90
2017-08-13T22:41:45.219Z,31.70
2017-08-13T22:44:14.515Z,31.70
2017-08-13T22:46:43.784Z,32.10
2017-08-13T22:49:13.042Z,29.70
2017-08-13T22:51:43.056Z,29.10
2017-08-13T22:54:13.319Z,29.10
2017-08-13T22:56:48.241Z,29.00
2017-08-13T22:59:17.747Z,31.80
2017-08-13T23:01:46.844Z,30.50
2017-08-13T23:04:15.946Z,31.70
2017-08-13T23:06:45.295Z,30.00
2017-08-13T23:09:15.081Z,29.70
2017-08-13T23:11:44.256Z,28.70
2017-08-13T23:14:13.643Z,29.40
2017-08-13T23:16:43.992Z,29.90
2017-08-13T23:19:13.562Z,30.30
2017-08-13T23:21:42.734Z,28.40
2017-08-13T23:24:12.051Z,27.20
2017-08-13T23:26:42.167Z,26.60
2017-08-13T23:29:12.669Z,26.20
2017-08-13T23:31:41.824Z,27.30
2017-08-13T23:34:12.938Z,26.90
2017-08-13T23:36:42.178Z,27.70
2017-08-13T23:39:11.338Z,26.00
2017-08-13T23:41:40.572Z,25.60
2017-08-13T23:44:09.876Z,27.70
2017-08-13T23:46:39.386Z,27.30
2017-08-13T23:49:08.561Z,28.30
2017-08-13T23:51:37.865Z,26.90
2017-08-13T23:54:07.048Z,26.30
2017-08-13T23:56:36.436Z,26.20
2017-08-13T23:59:05.650Z,26.10
